This is the latest recevied telemetry packets stored in our database for station/object OE5MHX-11. If no packets are shown the sender has not sent any telemetry packets the latest 1 day(s).
Telemetry packets is used to share measurements like repeteater parameters, battery voltage, radiation readings (or any other measurements).
| Time | Press* | Temp.in* | Hum* | QNH* | Temp.out* |
|---|---|---|---|---|---|
| 1836274221 | 973.9 hPa | 11.5 C deg | 68.1 % | 1025.1 hPa | 14.3 C deg |
| 1778021952 | 960.5 hPa | 16.5 C deg | 53.1 % | 1009.8 hPa | 16 C deg |
| 1778020140 | 960.4 hPa | 16.6 C deg | 52.7 % | 1009.7 hPa | 16.4 C deg |
| 1778018324 | 960.2 hPa | 16.8 C deg | 52.8 % | 1009.4 hPa | 16.4 C deg |
| 1778016512 | 959.8 hPa | 17 C deg | 51.8 % | 1009 hPa | 16.1 C deg |
| 1778014693 | 959.2 hPa | 17.2 C deg | 50.9 % | 1008.3 hPa | 16.3 C deg |
| 1778012881 | 958.8 hPa | 17.6 C deg | 50.3 % | 1007.8 hPa | 16.6 C deg |
| 1778011065 | 958.5 hPa | 18 C deg | 49.5 % | 1007.4 hPa | 16.7 C deg |
| 1778009247 | 957.8 hPa | 18.5 C deg | 48.5 % | 1006.6 hPa | 17.3 C deg |
| 1778007434 | 957.2 hPa | 19.2 C deg | 47.2 % | 1005.9 hPa | 18 C deg |
| 1778005617 | 956.7 hPa | 20 C deg | 46.1 % | 1005.2 hPa | 18.7 C deg |
| 1778003804 | 956.5 hPa | 20.5 C deg | 44.7 % | 1004.9 hPa | 19.9 C deg |
| 1778001995 | 956.5 hPa | 21.1 C deg | 43.4 % | 1004.8 hPa | 19.8 C deg |
| 1778000174 | 956.8 hPa | 21.8 C deg | 42.4 % | 1005 hPa | 21.1 C deg |
| 1777998358 | 956.9 hPa | 22.5 C deg | 40.5 % | 1004.9 hPa | 20.4 C deg |
| 1777996542 | 956.3 hPa | 23.5 C deg | 35.6 % | 1004.2 hPa | 22.9 C deg |
| 1777994726 | 955.5 hPa | 24.2 C deg | 34.7 % | 1003.2 hPa | 25.5 C deg |
| 1777992916 | 955.4 hPa | 24.8 C deg | 33.3 % | 1003.1 hPa | 25.9 C deg |
| 1777991096 | 955.5 hPa | 25.1 C deg | 33.2 % | 1003.1 hPa | 27.2 C deg |
| 1777989281 | 955.7 hPa | 25.5 C deg | 32.3 % | 1003.3 hPa | 27.6 C deg |
| 1777987468 | 956 hPa | 25.8 C deg | 30 % | 1003.5 hPa | 27.9 C deg |
| 1777985652 | 956.2 hPa | 25.8 C deg | 31.5 % | 1003.7 hPa | 30.5 C deg |
| 1777983836 | 956.5 hPa | 25.9 C deg | 30.5 % | 1004.1 hPa | 30.8 C deg |
| 1777982020 | 956.9 hPa | 25.9 C deg | 31.2 % | 1004.5 hPa | 29.9 C deg |
| 1777980207 | 957.5 hPa | 25.8 C deg | 32.5 % | 1005 hPa | 30.9 C deg |
*Used Equation Coefficients:
Press: 0, 1, 0
Temp.in: 0, 1, 0
Hum: 0, 1, 0
QNH: 0, 1, 0
Temp.out: 0, 1, 0
- The parameter names for the analog channels will be Value1, Value2, Value3 (up to Value5) if station has not sent a PARAM-packet that specifies the parameter names for each analog channel.
- Each analog value is a decimal number between 000 and 255 (according to APRS specifications). The receiver use the telemetry equation coefficientsto to restore the original sensor values. If no EQNS-packet with equation coefficients is sent we will show the values as is (this corresponds to the equation coefficients a=0, b=1 and c=0).
The sent equation coefficients is used in the equation: a * value2 + b * value + c. - The units for the analog values will not be shown if station has not sent a UNIT-packet specifying what unit's to use.
- The parameter names for the digital bits will be Bit1, Bit2, Bit3 (up to Bit8) if station has not sent a PARAM-packet that specifies the parameter names for each digital bit.
- All bit labels will be named "On" if station has not sent a UNIT-packet that specifies the label of each bit.
- A bit is considered to be On when the bit is 1 if station has not sent a BITS-packet that specifies another "Bit sense" (a BITS-packet specify the state of the bits that match the BIT labels)